Time;durP1;ratioP1;P1;durP2;ratioP2;P2;SDS_P1;SDS_P2;PMS_P1;PMS_P2;Temp;Humidity;BMP_temperature;BMP_pressure;BME280_temperature;BME280_humidity;BME280_pressure;Samples;Min_cycle;Max_cycle;Signal;HPM_P1;HPM_P2
2024/02/27 00:01:41;;;;;;;0.70;0.70;;;;;;;7.68;79.59;97510.28;4962221;28;20169;-93
2024/02/27 00:04:08;;;;;;;0.80;0.80;;;;;;;7.62;80.02;97523.44;4967277;28;20037;-94
2024/02/27 00:06:33;;;;;;;0.80;0.80;;;;;;;7.59;80.44;97526.03;4961831;28;20110;-93
2024/02/27 00:08:58;;;;;;;0.80;0.80;;;;;;;7.53;80.62;97521.47;4949455;28;20129;-93
2024/02/27 00:11:25;;;;;;;0.80;0.80;;;;;;;7.49;81.09;97511.66;4954571;28;20063;-93
2024/02/27 00:13:51;;;;;;;0.80;0.80;;;;;;;7.37;81.99;97527.28;4954517;28;20037;-93
2024/02/27 00:16:18;;;;;;;0.80;0.80;;;;;;;7.42;81.73;97533.59;4952070;28;20038;-94
2024/02/27 00:18:44;;;;;;;0.80;0.80;;;;;;;7.38;82.03;97519.41;4951104;28;20031;-93
2024/02/27 00:21:11;;;;;;;0.80;0.80;;;;;;;7.39;81.45;97518.53;4950959;28;20700;-94
2024/02/27 00:23:36;;;;;;;0.70;0.70;;;;;;;7.40;80.94;97517.66;4953377;28;20035;-94
2024/02/27 00:26:02;;;;;;;0.90;0.90;;;;;;;7.45;80.56;97534.56;4969310;28;20046;-93
2024/02/27 00:28:28;;;;;;;0.80;0.80;;;;;;;7.43;80.80;97536.31;4940225;28;20039;-93
2024/02/27 00:30:53;;;;;;;0.77;0.77;;;;;;;7.42;80.94;97541.56;4978727;28;20088;-91
2024/02/27 00:33:19;;;;;;;0.80;0.80;;;;;;;7.34;81.29;97541.41;4942337;28;20046;-93
2024/02/27 00:35:44;;;;;;;0.70;0.70;;;;;;;7.42;80.86;97550.41;4964230;28;20034;-91
2024/02/27 00:38:13;;;;;;;0.80;0.80;;;;;;;7.43;80.77;97554.00;4965880;28;20031;-90
2024/02/27 00:40:38;;;;;;;0.70;0.70;;;;;;;7.35;81.57;97555.56;4975807;28;20556;-92
2024/02/27 00:43:07;;;;;;;0.80;0.80;;;;;;;7.20;82.24;97556.13;4954867;28;20204;-92
2024/02/27 00:45:32;;;;;;;0.80;0.80;;;;;;;7.24;81.78;97565.03;4965625;28;20714;-92
2024/02/27 00:47:57;;;;;;;0.75;0.75;;;;;;;7.15;82.00;97565.72;4935980;28;20128;-91
2024/02/27 00:50:23;;;;;;;0.80;0.80;;;;;;;7.17;81.54;97577.25;4937084;28;20659;-91
2024/02/27 00:52:49;;;;;;;0.80;0.80;;;;;;;7.19;80.33;97579.09;4956388;28;20646;-94
2024/02/27 00:55:16;;;;;;;0.80;0.80;;;;;;;7.23;79.74;97577.38;4955350;28;20062;-93
2024/02/27 00:57:41;;;;;;;0.80;0.80;;;;;;;7.18;79.48;97594.94;4954286;28;20046;-94
2024/02/27 01:00:08;;;;;;;0.70;0.70;;;;;;;7.19;79.46;97596.78;4955520;28;20039;-94
2024/02/27 01:02:36;;;;;;;0.70;0.70;;;;;;;7.22;79.20;97607.44;4967803;28;20359;-94
2024/02/27 01:05:03;;;;;;;0.70;0.70;;;;;;;7.27;78.50;97615.50;4939795;28;20193;-93
2024/02/27 01:07:29;;;;;;;0.80;0.80;;;;;;;7.17;77.95;97615.28;4965173;28;20031;-93
2024/02/27 01:09:55;;;;;;;0.80;0.80;;;;;;;7.15;77.28;97624.06;4949317;28;20374;-92
2024/02/27 01:12:20;;;;;;;0.73;0.73;;;;;;;7.12;77.70;97631.94;4952453;28;20035;-94
2024/02/27 01:14:46;;;;;;;0.80;0.80;;;;;;;7.10;76.68;97634.56;4934809;28;20074;-93
2024/02/27 01:17:11;;;;;;;0.80;0.80;;;;;;;7.12;77.65;97639.91;4970890;28;20035;-92
2024/02/27 01:19:36;;;;;;;0.80;0.80;;;;;;;7.12;76.39;97631.94;4971861;28;20046;-93
2024/02/27 01:22:02;;;;;;;0.70;0.70;;;;;;;7.03;76.14;97637.00;4969331;28;20400;-92
2024/02/27 01:24:30;;;;;;;0.80;0.80;;;;;;;7.01;76.67;97641.41;4970262;28;20049;-93
2024/02/27 01:26:55;;;;;;;0.70;0.70;;;;;;;6.98;76.47;97636.91;4952814;28;20113;-93
2024/02/27 01:29:21;;;;;;;0.70;0.70;;;;;;;7.15;74.98;97645.28;4945988;28;20117;-93
2024/02/27 01:31:46;;;;;;;0.70;0.70;;;;;;;7.03;76.23;97648.50;4934301;28;20117;-92
2024/02/27 01:34:12;;;;;;;0.70;0.70;;;;;;;6.91;76.94;97640.25;4948996;28;20153;-94
2024/02/27 01:36:38;;;;;;;0.70;0.70;;;;;;;6.85;77.78;97635.72;4961265;28;20047;-91
2024/02/27 01:39:04;;;;;;;0.80;0.80;;;;;;;6.77;77.88;97641.66;4937606;28;20046;-93
2024/02/27 01:41:30;;;;;;;0.80;0.80;;;;;;;6.71;78.59;97628.22;4969941;28;20042;-93
2024/02/27 01:43:56;;;;;;;0.80;0.80;;;;;;;6.84;77.30;97627.69;4947075;28;20035;-94
2024/02/27 01:46:23;;;;;;;0.70;0.70;;;;;;;6.79;77.77;97621.38;4967849;28;20041;-92
2024/02/27 01:48:50;;;;;;;;;;;;;;;6.72;76.90;97625.63;4969663;28;20063;-93
2024/02/27 01:51:17;;;;;;;0.80;0.80;;;;;;;6.68;77.10;97615.81;4952948;28;20001;-93
2024/02/27 01:53:47;;;;;;;0.70;0.70;;;;;;;6.66;77.64;97606.94;4937469;28;20086;-92
2024/02/27 01:56:14;;;;;;;0.80;0.80;;;;;;;6.68;77.09;97613.16;4937025;28;20031;-92
2024/02/27 01:58:40;;;;;;;;;;;;;;;6.64;76.94;97612.16;4954673;28;20027;-91
2024/02/27 02:01:07;;;;;;;0.80;0.80;;;;;;;6.66;76.65;97606.94;4968299;28;20435;-91
2024/02/27 02:03:35;;;;;;;;;;;;;;;6.64;76.41;97611.28;4948761;28;20035;-93
2024/02/27 02:06:02;;;;;;;0.80;0.80;;;;;;;6.64;76.56;97605.97;4948749;28;19953;-92
2024/02/27 02:08:28;;;;;;;0.80;0.80;;;;;;;6.61;76.01;97605.88;4953388;28;20062;-92
2024/02/27 02:10:54;;;;;;;0.80;0.80;;;;;;;6.59;76.00;97612.91;4970366;28;20445;-94
2024/02/27 02:13:20;;;;;;;0.80;0.80;;;;;;;6.57;76.48;97615.53;4953991;28;20121;-92
2024/02/27 02:15:46;;;;;;;0.80;0.80;;;;;;;6.65;76.44;97613.06;4955122;28;20042;-94
2024/02/27 02:18:12;;;;;;;0.70;0.70;;;;;;;6.78;76.49;97623.13;4952104;28;20035;-93
2024/02/27 02:20:39;;;;;;;0.82;0.82;;;;;;;6.64;77.37;97613.91;4971730;28;20094;-93
2024/02/27 02:23:05;;;;;;;0.90;0.90;;;;;;;6.54;76.56;97611.88;4939764;28;20049;-93
2024/02/27 02:25:32;;;;;;;0.80;0.80;;;;;;;6.54;76.88;97610.13;4967821;28;20034;-93
2024/02/27 02:27:58;;;;;;;;;;;;;;;6.48;76.72;97602.03;4966169;28;20035;-93
2024/02/27 02:30:23;;;;;;;0.87;0.87;;;;;;;6.39;77.82;97601.78;4952096;28;19941;-92
2024/02/27 02:32:50;;;;;;;0.90;0.90;;;;;;;6.34;77.09;97614.91;4956274;28;20065;-92
2024/02/27 02:35:17;;;;;;;0.88;0.88;;;;;;;6.50;76.45;97613.56;4956198;28;20492;-92
2024/02/27 02:37:47;;;;;;;0.80;0.80;;;;;;;6.46;76.58;97624.91;4923228;28;20043;-93
2024/02/27 02:40:16;;;;;;;0.80;0.80;;;;;;;6.52;74.94;97626.88;4947750;28;20041;-91
2024/02/27 02:42:42;;;;;;;0.80;0.80;;;;;;;6.60;74.65;97627.94;4935194;28;20037;-92
2024/02/27 02:45:10;;;;;;;0.70;0.70;;;;;;;6.55;74.61;97635.75;4952547;28;20492;-92
2024/02/27 02:47:35;;;;;;;;;;;;;;;6.58;74.96;97629.66;4940219;28;20027;-93
2024/02/27 02:50:02;;;;;;;0.80;0.80;;;;;;;6.58;74.15;97637.63;4951370;28;20013;-89
2024/02/27 02:52:27;;;;;;;0.80;0.80;;;;;;;6.61;73.12;97637.69;4934332;28;20081;-93
2024/02/27 02:54:53;;;;;;;0.80;0.80;;;;;;;6.66;72.57;97638.72;4939014;28;20219;-92
2024/02/27 02:57:18;;;;;;;0.80;0.80;;;;;;;6.53;73.43;97642.78;4969979;28;20042;-92
2024/02/27 02:59:44;;;;;;;0.80;0.80;;;;;;;6.68;73.47;97644.97;4951793;28;20023;-92
2024/02/27 03:02:09;;;;;;;0.80;0.80;;;;;;;6.52;73.49;97656.00;4932144;28;20038;-91
2024/02/27 03:04:35;;;;;;;0.80;0.80;;;;;;;6.42;74.06;97658.41;4948963;28;20111;-92
2024/02/27 03:07:00;;;;;;;0.80;0.80;;;;;;;6.52;73.25;97663.97;4949139;28;20041;-91
2024/02/27 03:09:26;;;;;;;0.80;0.80;;;;;;;6.53;72.57;97673.69;4964986;28;20057;-92
2024/02/27 03:11:52;;;;;;;0.70;0.70;;;;;;;6.53;72.09;97669.28;4949597;28;20097;-91
2024/02/27 03:14:17;;;;;;;0.80;0.80;;;;;;;6.52;72.66;97677.22;4936732;28;20054;-92
2024/02/27 03:16:45;;;;;;;0.77;0.77;;;;;;;6.53;73.07;97676.34;4949841;28;20085;-91
2024/02/27 03:19:10;;;;;;;0.80;0.80;;;;;;;6.58;73.64;97675.63;4942228;28;20031;-91
2024/02/27 03:21:36;;;;;;;0.80;0.80;;;;;;;6.71;72.95;97671.56;4957440;28;20041;-92
2024/02/27 03:24:02;;;;;;;0.80;0.80;;;;;;;6.63;73.62;97676.63;4953210;28;20270;-93
2024/02/27 03:26:28;;;;;;;0.80;0.80;;;;;;;6.61;73.92;97681.00;4955425;28;20035;-92
2024/02/27 03:28:53;;;;;;;0.80;0.80;;;;;;;6.42;73.71;97673.41;4960246;28;20086;-91
2024/02/27 03:31:18;;;;;;;0.80;0.80;;;;;;;6.53;72.17;97668.41;4959823;28;20121;-92
2024/02/27 03:33:44;;;;;;;0.80;0.80;;;;;;;6.46;73.01;97675.25;4960945;28;20053;-92
2024/02/27 03:36:09;;;;;;;0.80;0.80;;;;;;;6.38;73.48;97685.66;4981677;28;20583;-92
2024/02/27 03:38:38;;;;;;;0.70;0.70;;;;;;;6.54;73.64;97679.03;4966299;28;20030;-92
2024/02/27 03:41:04;;;;;;;0.80;0.80;;;;;;;6.52;73.61;97688.69;4963914;28;20035;-92
2024/02/27 03:43:29;;;;;;;0.80;0.80;;;;;;;6.65;73.16;97697.88;4949344;28;20042;-92
2024/02/27 03:45:55;;;;;;;0.70;0.70;;;;;;;6.63;73.67;97694.28;4962533;28;20500;-93
2024/02/27 03:48:20;;;;;;;0.80;0.80;;;;;;;6.52;73.60;97690.47;4965363;28;20031;-92
2024/02/27 03:50:46;;;;;;;0.82;0.82;;;;;;;6.51;73.77;97688.63;4980795;28;20035;-91
2024/02/27 03:53:11;;;;;;;0.70;0.70;;;;;;;6.54;73.75;97688.72;4981669;28;20086;-92
2024/02/27 03:55:37;;;;;;;0.80;0.80;;;;;;;6.49;74.18;97701.84;4988720;28;20039;-91
2024/02/27 03:58:03;;;;;;;0.80;0.80;;;;;;;6.49;73.46;97696.56;4974250;28;20019;-91
2024/02/27 04:00:29;;;;;;;0.80;0.80;;;;;;;6.53;73.34;97703.75;4973734;28;20037;-91
2024/02/27 04:02:55;;;;;;;0.90;0.90;;;;;;;6.54;73.09;97713.47;4973458;28;20062;-91
2024/02/27 04:05:21;;;;;;;0.90;0.90;;;;;;;6.46;73.43;97717.66;4974900;28;20039;-93
2024/02/27 04:07:47;;;;;;;0.80;0.80;;;;;;;6.43;74.64;97718.47;4942665;28;20042;-92
2024/02/27 04:10:15;;;;;;;0.85;0.85;;;;;;;6.30;75.99;97723.38;4944248;28;20469;-93
2024/02/27 04:12:40;;;;;;;0.90;0.90;;;;;;;6.22;75.30;97728.44;4957684;29;20039;-93
2024/02/27 04:15:07;;;;;;;0.88;0.88;;;;;;;6.30;74.64;97724.25;4957086;28;20159;-92
2024/02/27 04:17:32;;;;;;;0.70;0.70;;;;;;;6.32;75.46;97722.53;4973445;28;20035;-92
2024/02/27 04:19:58;;;;;;;0.80;0.80;;;;;;;6.29;75.39;97730.41;4955215;28;20097;-93
2024/02/27 04:22:23;;;;;;;0.80;0.80;;;;;;;6.45;74.80;97721.16;4950784;28;20034;-92
2024/02/27 04:24:48;;;;;;;0.80;0.80;;;;;;;6.29;75.44;97721.56;4974772;28;20386;-93
2024/02/27 04:27:15;;;;;;;0.80;0.80;;;;;;;6.30;75.21;97728.66;4945104;28;20075;-92
2024/02/27 04:29:41;;;;;;;0.90;0.90;;;;;;;6.35;74.84;97725.28;4969629;28;20041;-91
2024/02/27 04:32:07;;;;;;;0.77;0.77;;;;;;;6.27;75.04;97732.09;4948937;28;20042;-91
2024/02/27 04:34:33;;;;;;;0.80;0.80;;;;;;;6.36;75.25;97731.47;4952240;28;20039;-92
2024/02/27 04:36:59;;;;;;;0.80;0.80;;;;;;;6.27;75.40;97734.75;4964776;28;20541;-92
2024/02/27 04:39:26;;;;;;;0.90;0.90;;;;;;;6.28;74.86;97743.63;4948773;28;20641;-93
2024/02/27 04:41:53;;;;;;;0.85;0.85;;;;;;;6.30;75.64;97741.91;4936452;28;20050;-93
2024/02/27 04:44:20;;;;;;;0.75;0.75;;;;;;;6.31;74.53;97747.25;4940314;28;20621;-94
2024/02/27 04:46:46;;;;;;;0.80;0.80;;;;;;;6.22;74.77;97746.97;4952835;28;20122;-93
2024/02/27 04:49:11;;;;;;;0.80;0.80;;;;;;;6.25;75.37;97739.13;4955053;28;20041;-94
2024/02/27 04:51:37;;;;;;;0.80;0.80;;;;;;;6.16;75.45;97752.09;4952316;28;20043;-93
2024/02/27 04:54:03;;;;;;;0.80;0.80;;;;;;;6.18;74.74;97755.69;4961118;28;20035;-93
2024/02/27 04:56:29;;;;;;;0.80;0.80;;;;;;;6.22;75.77;97767.25;4949691;28;20035;-93
2024/02/27 04:58:54;;;;;;;0.80;0.80;;;;;;;6.18;75.65;97768.94;4933909;28;20128;-94
2024/02/27 05:01:20;;;;;;;0.80;0.80;;;;;;;6.11;75.69;97762.53;4971158;28;20046;-93
2024/02/27 05:03:46;;;;;;;0.80;0.80;;;;;;;6.09;75.67;97771.31;4951339;28;20035;-92
2024/02/27 05:06:15;;;;;;;0.80;0.80;;;;;;;6.14;75.15;97775.00;4938545;28;20552;-94
2024/02/27 05:08:40;;;;;;;0.80;0.80;;;;;;;6.20;74.52;97777.81;4935702;28;20042;-93
2024/02/27 05:11:08;;;;;;;0.80;0.80;;;;;;;6.32;75.20;97780.81;4937264;28;20030;-93
2024/02/27 05:13:33;;;;;;;0.80;0.80;;;;;;;6.16;75.22;97778.56;4950950;28;20568;-94
2024/02/27 05:15:59;;;;;;;0.80;0.80;;;;;;;6.18;75.33;97779.53;4956630;28;20038;-93
2024/02/27 05:18:24;;;;;;;0.80;0.80;;;;;;;6.19;74.97;97781.31;4952332;28;20098;-92
2024/02/27 05:20:50;;;;;;;0.80;0.80;;;;;;;6.15;75.02;97775.03;4953802;28;20457;-93
2024/02/27 05:23:15;;;;;;;0.80;0.80;;;;;;;6.22;74.40;97792.00;4969168;28;20027;-93
2024/02/27 05:25:41;;;;;;;0.80;0.80;;;;;;;6.14;74.68;97788.22;4948190;28;20050;-91
2024/02/27 05:28:07;;;;;;;0.80;0.80;;;;;;;6.07;75.27;97799.47;4963038;28;20035;-92
2024/02/27 05:30:32;;;;;;;0.80;0.80;;;;;;;6.04;75.53;97794.09;4955304;28;20041;-92
2024/02/27 05:32:58;;;;;;;0.80;0.80;;;;;;;6.08;74.78;97798.59;4965527;28;20042;-91
2024/02/27 05:35:23;;;;;;;0.80;0.80;;;;;;;6.09;74.99;97800.44;4965469;28;20050;-93
2024/02/27 05:37:49;;;;;;;0.73;0.73;;;;;;;6.04;75.28;97805.56;4944671;28;20117;-93
2024/02/27 05:40:15;;;;;;;0.80;0.80;;;;;;;6.11;75.34;97801.34;4968048;28;20056;-94
2024/02/27 05:42:41;;;;;;;0.80;0.80;;;;;;;6.12;74.70;97803.16;4966958;28;20070;-94
2024/02/27 05:45:07;;;;;;;0.80;0.80;;;;;;;6.06;75.00;97801.22;4966399;28;20111;-93
2024/02/27 05:47:33;;;;;;;0.80;0.80;;;;;;;6.07;75.29;97812.69;4950625;28;20106;-93
2024/02/27 05:49:58;;;;;;;0.70;0.70;;;;;;;6.03;75.52;97814.34;4953028;28;20150;-93
2024/02/27 05:52:24;;;;;;;0.80;0.80;;;;;;;6.08;75.45;97820.69;4952803;28;20365;-93
2024/02/27 05:54:49;;;;;;;0.70;0.70;;;;;;;6.04;74.78;97820.56;4955159;28;20031;-93
2024/02/27 05:57:15;;;;;;;0.80;0.80;;;;;;;6.00;75.33;97832.81;4955037;28;20041;-93
2024/02/27 05:59:40;;;;;;;0.80;0.80;;;;;;;6.06;75.76;97853.28;4954857;28;20047;-92
2024/02/27 06:02:06;;;;;;;0.80;0.80;;;;;;;5.99;75.80;97846.91;4951733;28;20073;-93
2024/02/27 06:04:33;;;;;;;0.80;0.80;;;;;;;6.04;75.20;97844.41;4953552;28;20050;-94
2024/02/27 06:06:58;;;;;;;0.90;0.90;;;;;;;6.01;75.65;97844.28;4956401;28;20038;-94
2024/02/27 06:09:24;;;;;;;0.88;0.88;;;;;;;6.08;74.78;97843.63;4939029;28;20038;-92
2024/02/27 06:11:50;;;;;;;0.88;0.88;;;;;;;6.02;75.33;97859.31;4950552;28;20054;-93
2024/02/27 06:14:15;;;;;;;0.80;0.80;;;;;;;6.11;75.09;97862.25;4955510;28;20415;-94
2024/02/27 06:16:41;;;;;;;0.80;0.80;;;;;;;6.16;74.47;97866.84;4936932;28;20019;-92
2024/02/27 06:19:07;;;;;;;0.70;0.70;;;;;;;6.09;75.25;97866.63;4954997;28;20157;-92
2024/02/27 06:24:17;;;;;;;0.80;0.80;;;;;;;6.05;75.15;97872.66;4955470;28;20054;-92
2024/02/27 06:26:43;;;;;;;0.82;0.82;;;;;;;6.07;75.09;97881.56;4951401;28;20113;-91
2024/02/27 06:29:09;;;;;;;0.80;0.80;;;;;;;6.22;74.42;97875.84;4951887;28;20035;-91
2024/02/27 06:31:35;;;;;;;0.88;0.88;;;;;;;6.17;75.24;97881.00;4949911;28;20042;-91
2024/02/27 06:34:03;;;;;;;0.80;0.80;;;;;;;6.22;75.19;97879.41;4935174;28;20047;-92
2024/02/27 06:36:30;;;;;;;0.80;0.80;;;;;;;6.26;74.75;97883.06;4942464;28;20043;-92
2024/02/27 06:38:56;;;;;;;0.80;0.80;;;;;;;6.33;74.45;97885.06;4949564;28;20051;-92
2024/02/27 06:41:25;;;;;;;0.90;0.90;;;;;;;6.28;74.21;97890.22;4947133;28;20035;-91
2024/02/27 06:43:51;;;;;;;0.82;0.82;;;;;;;6.26;74.30;97898.94;4945033;28;20050;-92
2024/02/27 06:46:16;;;;;;;0.80;0.80;;;;;;;6.26;74.59;97901.59;4956925;28;20031;-92
2024/02/27 06:48:43;;;;;;;0.80;0.80;;;;;;;6.25;74.34;97911.28;4942183;28;20067;-92
2024/02/27 06:51:09;;;;;;;0.77;0.77;;;;;;;6.20;74.96;97917.28;4934296;28;20085;-92
2024/02/27 06:53:35;;;;;;;0.80;0.80;;;;;;;6.25;74.38;97919.22;4947333;28;20044;-91
2024/02/27 06:56:02;;;;;;;0.90;0.90;;;;;;;6.34;74.72;97916.88;4969924;28;20500;-92
2024/02/27 06:58:28;;;;;;;0.90;0.90;;;;;;;6.34;74.73;97918.63;4946953;28;20489;-92
2024/02/27 07:00:54;;;;;;;0.80;0.80;;;;;;;6.30;74.21;97922.03;4982664;28;20022;-92
2024/02/27 07:03:20;;;;;;;0.80;0.80;;;;;;;6.33;74.75;97923.03;4956518;28;20042;-92
2024/02/27 07:05:46;;;;;;;;;;;;;;;6.33;74.62;97928.34;4970313;28;20023;-92
2024/02/27 07:08:12;;;;;;;0.80;0.80;;;;;;;6.41;74.14;97921.53;4945797;28;20623;-91
2024/02/27 07:10:38;;;;;;;0.85;0.85;;;;;;;6.45;74.73;97922.53;4941362;28;20046;-91
2024/02/27 07:13:09;;;;;;;0.80;0.80;;;;;;;6.47;74.45;97926.16;4964259;28;20034;-92
2024/02/27 07:15:38;;;;;;;0.85;0.85;;;;;;;6.55;73.71;97926.38;4956995;28;20058;-92
2024/02/27 07:18:04;;;;;;;0.80;0.80;;;;;;;6.58;74.65;97922.06;4950193;28;20023;-91
2024/02/27 07:20:30;;;;;;;0.70;0.70;;;;;;;6.76;74.03;97919.09;4953682;28;20598;-92
2024/02/27 07:22:59;;;;;;;0.80;0.80;;;;;;;6.67;73.82;97913.50;4953082;28;20232;-92
2024/02/27 07:25:25;;;;;;;0.70;0.70;;;;;;;6.79;74.35;97921.81;4971744;28;20088;-92
2024/02/27 07:27:50;;;;;;;0.85;0.85;;;;;;;6.81;74.06;97928.09;4960656;28;20126;-92
2024/02/27 07:30:16;;;;;;;0.90;0.90;;;;;;;6.83;73.97;97925.47;4958623;28;20034;-93
2024/02/27 07:32:43;;;;;;;0.90;0.90;;;;;;;6.78;74.24;97922.69;4943516;28;20046;-92
2024/02/27 07:35:09;;;;;;;0.77;0.77;;;;;;;6.85;73.48;97930.00;4970821;28;20919;-93
2024/02/27 07:37:35;;;;;;;0.90;0.90;;;;;;;6.82;74.02;97931.66;4953625;28;20476;-92
2024/02/27 07:40:02;;;;;;;0.70;0.70;;;;;;;6.97;73.80;97940.06;4958508;28;20054;-90
2024/02/27 07:42:29;;;;;;;0.80;0.80;;;;;;;6.84;72.83;97946.72;4961385;28;20095;-92
2024/02/27 07:44:55;;;;;;;0.80;0.80;;;;;;;6.99;72.86;97942.75;4967439;28;20051;-93
2024/02/27 07:47:20;;;;;;;0.80;0.80;;;;;;;6.90;73.28;97943.41;4943507;28;20055;-93
2024/02/27 07:49:47;;;;;;;0.70;0.70;;;;;;;7.00;74.58;97950.78;4961743;28;20031;-93
2024/02/27 07:52:14;;;;;;;0.80;0.80;;;;;;;7.07;73.56;97947.44;4970057;28;20042;-93
2024/02/27 07:54:43;;;;;;;0.80;0.80;;;;;;;6.92;73.54;97944.31;4974190;28;20082;-94
2024/02/27 07:57:14;;;;;;;0.80;0.80;;;;;;;7.02;73.57;97930.50;4977502;28;20458;-93
2024/02/27 07:59:39;;;;;;;0.90;0.90;;;;;;;6.92;73.22;97945.22;4939833;28;20031;-93
2024/02/27 08:02:07;;;;;;;0.80;0.80;;;;;;;7.09;73.30;97947.47;4953877;28;20132;-92
2024/02/27 08:07:21;;;;;;;0.80;0.80;;;;;;;7.08;74.16;97949.22;4975822;28;20035;-92
2024/02/27 08:09:54;;;;;;;0.90;0.90;;;;;;;7.33;73.09;97948.22;4983585;28;20031;-92
2024/02/27 08:12:19;;;;;;;0.80;0.80;;;;;;;7.41;72.96;97949.31;4944639;28;20042;-92
2024/02/27 08:14:45;;;;;;;0.90;0.90;;;;;;;7.40;71.95;97955.50;4945089;28;20034;-92
2024/02/27 08:17:12;;;;;;;0.90;0.90;;;;;;;7.59;72.19;97956.91;4943958;28;20113;-92
2024/02/27 08:19:39;;;;;;;0.80;0.80;;;;;;;7.66;71.22;97955.31;4961429;28;20041;-92
2024/02/27 08:22:06;;;;;;;0.80;0.80;;;;;;;7.70;71.48;97951.91;4974209;28;21250;-92
2024/02/27 08:24:32;;;;;;;0.80;0.80;;;;;;;7.82;71.82;97959.31;4948712;28;20042;-92
2024/02/27 08:26:59;;;;;;;0.75;0.75;;;;;;;8.01;70.98;97963.38;4981710;28;20067;-93
2024/02/27 08:29:29;;;;;;;0.70;0.70;;;;;;;7.90;71.13;97960.41;4956114;28;20015;-93
2024/02/27 08:31:55;;;;;;;0.80;0.80;;;;;;;8.12;70.59;97964.56;4976779;28;20102;-92
2024/02/27 08:34:22;;;;;;;0.80;0.80;;;;;;;8.15;69.76;97969.97;4991185;28;20069;-92
2024/02/27 08:36:47;;;;;;;0.85;0.85;;;;;;;7.91;71.09;97975.53;4977933;28;20039;-91
2024/02/27 08:39:13;;;;;;;0.70;0.70;;;;;;;7.95;71.45;97986.25;4971564;28;20102;-93
2024/02/27 08:41:38;;;;;;;0.70;0.70;;;;;;;7.91;71.30;97986.13;4983865;28;20050;-93
2024/02/27 08:44:04;;;;;;;0.70;0.70;;;;;;;7.89;70.79;97988.72;4983989;28;20092;-93
2024/02/27 08:46:29;;;;;;;0.70;0.70;;;;;;;7.90;71.56;97993.19;4956714;28;20023;-92
2024/02/27 08:48:57;;;;;;;0.70;0.70;;;;;;;7.92;71.75;98001.22;4968941;28;20024;-92
2024/02/27 08:51:22;;;;;;;0.80;0.80;;;;;;;8.05;70.45;97990.06;4976381;28;20014;-92
2024/02/27 08:53:48;;;;;;;0.70;0.70;;;;;;;7.87;71.19;97990.47;4958957;28;21296;-91
2024/02/27 08:56:14;;;;;;;0.80;0.80;;;;;;;7.98;70.38;97988.09;4991590;28;20027;-92
2024/02/27 08:58:41;;;;;;;0.90;0.90;;;;;;;7.97;71.30;97980.97;4962793;28;20039;-92
2024/02/27 09:01:06;;;;;;;0.80;0.80;;;;;;;8.05;70.98;97984.75;4980089;28;20045;-92
2024/02/27 09:03:34;;;;;;;0.80;0.80;;;;;;;8.14;70.40;97982.31;4973375;28;20043;-91
2024/02/27 09:06:05;;;;;;;0.80;0.80;;;;;;;8.20;70.62;97982.50;4971218;28;20026;-92
2024/02/27 09:08:31;;;;;;;0.80;0.80;;;;;;;8.18;71.14;97973.56;4981017;28;20037;-93
2024/02/27 09:10:57;;;;;;;0.80;0.80;;;;;;;8.44;70.22;97976.94;4976585;28;20031;-93
2024/02/27 09:13:23;;;;;;;0.80;0.80;;;;;;;8.19;70.61;97975.41;4975444;28;20038;-92
2024/02/27 09:15:50;;;;;;;0.70;0.70;;;;;;;8.12;70.96;97964.56;4945466;28;20249;-92
2024/02/27 09:18:15;;;;;;;0.80;0.80;;;;;;;8.30;70.90;97967.69;4973424;28;20107;-92
2024/02/27 09:20:43;;;;;;;0.77;0.77;;;;;;;8.48;70.22;97967.31;4982882;28;20051;-92
2024/02/27 09:23:09;;;;;;;0.70;0.70;;;;;;;8.09;71.50;97980.41;4961770;28;20026;-91
2024/02/27 09:25:34;;;;;;;0.80;0.80;;;;;;;7.91;72.34;97979.06;4965600;28;20101;-92
2024/02/27 09:28:00;;;;;;;0.80;0.80;;;;;;;8.29;71.85;97987.16;4977841;28;20031;-93
2024/02/27 09:30:26;;;;;;;0.70;0.70;;;;;;;8.15;72.47;97991.22;4977328;28;20031;-90
2024/02/27 09:32:53;;;;;;;0.70;0.70;;;;;;;8.41;70.64;97991.91;4950734;28;20062;-93
2024/02/27 09:35:19;;;;;;;;;;;;;;;8.37;71.17;97996.25;4969357;28;20047;-92
2024/02/27 09:37:45;;;;;;;0.80;0.80;;;;;;;8.45;71.25;97988.47;4973838;28;19918;-92
2024/02/27 09:40:11;;;;;;;0.80;0.80;;;;;;;8.26;72.11;97976.44;4973174;28;20669;-93
2024/02/27 09:42:39;;;;;;;0.80;0.80;;;;;;;8.62;71.62;97976.50;4969509;28;20045;-91
2024/02/27 09:45:06;;;;;;;0.70;0.70;;;;;;;9.29;69.74;97981.59;4947057;28;20106;-93
2024/02/27 09:47:33;;;;;;;;;;;;;;;10.03;66.60;97971.59;4967021;28;20030;-93
2024/02/27 09:50:01;;;;;;;0.70;0.70;;;;;;;9.50;68.72;97967.00;4951054;28;19942;-94
2024/02/27 09:52:27;;;;;;;0.80;0.80;;;;;;;9.32;69.09;97971.91;4963321;28;20042;-93
2024/02/27 09:54:56;;;;;;;0.80;0.80;;;;;;;9.36;69.27;97968.47;4962759;28;20050;-95
2024/02/27 09:57:22;;;;;;;0.65;0.65;;;;;;;9.49;69.79;97966.97;4955984;28;20050;-94
2024/02/27 09:59:48;;;;;;;0.70;0.70;;;;;;;9.12;70.60;97965.25;4960327;28;20027;-91
2024/02/27 10:02:18;;;;;;;0.70;0.70;;;;;;;8.83;71.01;97967.25;4956239;28;20067;-92
2024/02/27 10:04:44;;;;;;;0.70;0.70;;;;;;;8.75;71.80;97967.06;4948201;28;20046;-93
2024/02/27 10:07:14;;;;;;;0.70;0.70;;;;;;;8.80;72.42;97961.84;4957479;28;20026;-92
2024/02/27 10:09:44;;;;;;;0.80;0.80;;;;;;;8.71;71.62;97966.06;4973175;28;20126;-92
2024/02/27 10:12:12;;;;;;;0.80;0.80;;;;;;;8.95;70.50;97975.50;4971630;28;20046;-91
2024/02/27 10:14:39;;;;;;;0.80;0.80;;;;;;;9.04;70.66;97969.50;4947042;28;20126;-94
2024/02/27 10:17:07;;;;;;;0.70;0.70;;;;;;;9.06;71.13;97983.75;4955360;28;20027;-94
2024/02/27 10:19:34;;;;;;;0.80;0.80;;;;;;;9.55;69.16;97979.50;4939358;28;20035;-93
2024/02/27 10:22:00;;;;;;;0.80;0.80;;;;;;;9.52;68.64;97977.66;4965138;28;20496;-91
2024/02/27 10:24:29;;;;;;;0.70;0.70;;;;;;;9.68;68.57;97981.56;4948052;28;20046;-92
2024/02/27 10:27:07;;;;;;;0.70;0.70;;;;;;;9.72;67.02;97978.06;4954968;28;20027;-93
2024/02/27 10:29:35;;;;;;;0.70;0.70;;;;;;;9.81;67.17;97991.56;4967795;28;20046;-93
2024/02/27 10:32:03;;;;;;;0.70;0.70;;;;;;;9.62;67.70;97997.38;4936950;28;20492;-92
2024/02/27 10:34:30;;;;;;;0.70;0.70;;;;;;;10.50;65.27;97992.94;4927018;29;20476;-91
2024/02/27 10:37:09;;;;;;;0.70;0.70;;;;;;;10.30;65.90;98004.97;4969036;28;20497;-92
2024/02/27 10:39:34;;;;;;;0.70;0.70;;;;;;;10.07;65.69;98007.19;4951626;28;20141;-93
2024/02/27 10:42:06;;;;;;;0.70;0.70;;;;;;;10.20;65.58;98006.53;4951081;28;20043;-93
2024/02/27 10:44:32;;;;;;;0.68;0.68;;;;;;;9.28;67.23;98009.97;4965187;28;20046;-93
2024/02/27 10:47:00;;;;;;;0.70;0.70;;;;;;;9.45;66.98;98005.94;4947092;28;20046;-93
2024/02/27 10:49:27;;;;;;;0.70;0.70;;;;;;;10.41;64.53;98007.00;4960412;28;20035;-93
2024/02/27 10:51:55;;;;;;;0.70;0.70;;;;;;;10.60;63.83;98005.53;4940500;28;20606;-90
2024/02/27 10:54:23;;;;;;;0.60;0.60;;;;;;;10.40;63.91;98023.88;4942738;28;20382;-93
2024/02/27 10:57:03;;;;;;;;;;;;;;;;;;;;;
2024/02/27 11:04:18;;;;;;;;;;;;;;;;;;;;;
2024/02/27 12:35:36;;;;;;;0.55;0.55;;;;;;;11.69;60.53;98015.19;4974920;28;20081;-91
2024/02/27 12:38:01;;;;;;;0.60;0.60;;;;;;;11.78;60.63;98012.63;4944563;28;20031;-89
2024/02/27 12:40:28;;;;;;;0.60;0.60;;;;;;;10.93;61.84;98010.56;4945450;28;20085;-92
2024/02/27 12:42:55;;;;;;;0.60;0.60;;;;;;;11.10;62.35;98009.91;4964443;28;20039;-93
2024/02/27 12:45:20;;;;;;;0.60;0.60;;;;;;;11.28;61.63;98007.50;4968944;28;20039;-92
2024/02/27 12:47:50;;;;;;;0.50;0.50;;;;;;;11.20;62.06;98012.72;4971283;28;20614;-90
2024/02/27 12:50:24;;;;;;;0.60;0.60;;;;;;;11.33;61.30;98008.47;4979753;28;20023;-93
2024/02/27 12:53:01;;;;;;;0.50;0.50;;;;;;;11.39;61.82;98005.00;4995230;28;20026;-94
2024/02/27 12:55:26;;;;;;;0.50;0.50;;;;;;;10.98;62.64;98006.19;4973815;28;20035;-92
2024/02/27 12:57:56;;;;;;;0.60;0.60;;;;;;;11.07;62.63;97996.50;4977248;28;20078;-91
2024/02/27 13:00:23;;;;;;;0.60;0.60;;;;;;;11.64;61.22;97993.78;4968596;29;20382;-92
2024/02/27 13:02:55;;;;;;;0.63;0.63;;;;;;;12.20;59.68;97988.22;4976987;28;20106;-91
2024/02/27 13:05:25;;;;;;;0.55;0.55;;;;;;;12.50;59.43;97981.38;4961526;28;20470;-93
2024/02/27 13:07:53;;;;;;;0.60;0.60;;;;;;;12.64;58.13;97984.19;4972618;28;20074;-92
2024/02/27 13:10:20;;;;;;;0.60;0.60;;;;;;;12.43;57.26;97977.75;4951303;28;20027;-93
2024/02/27 13:12:47;;;;;;;0.60;0.60;;;;;;;12.23;56.85;97964.19;4971541;28;20039;-91
2024/02/27 13:15:13;;;;;;;0.60;0.60;;;;;;;12.30;58.37;97962.47;4938387;28;20046;-91
2024/02/27 13:17:38;;;;;;;0.60;0.60;;;;;;;12.65;57.58;97961.88;4943547;28;20316;-92
2024/02/27 13:20:05;;;;;;;0.60;0.60;;;;;;;11.96;57.21;97958.53;4935206;28;20418;-92
2024/02/27 13:22:31;;;;;;;0.50;0.50;;;;;;;12.17;57.83;97963.22;4968951;28;20038;-92